Time;durP1;ratioP1;P1;durP2;ratioP2;P2;SDS_P1;SDS_P2;PMS_P1;PMS_P2;Temp;Humidity;BMP_temperature;BMP_pressure;BME280_temperature;BME280_humidity;BME280_pressure;Samples;Min_cycle;Max_cycle;Signal;HPM_P1;HPM_P2
2023/07/19 00:00:53;;;;;;;5.65;3.67;;;;;;;;;;5096968;28;20391;-63
2023/07/19 00:03:19;;;;;;;7.30;4.07;;;;;;;;;;5115052;28;20462;-63
2023/07/19 00:05:45;;;;;;;12.70;4.10;;;;;;;;;;5104493;28;20496;-63
2023/07/19 00:08:11;;;;;;;6.05;3.55;;;;;;;;;;5113998;28;20085;-63
2023/07/19 00:10:36;;;;;;;9.35;3.78;;;;;;;;;;5110546;28;20049;-62
2023/07/19 00:13:01;;;;;;;6.97;3.58;;;;;;;;;;5103852;28;20029;-63
2023/07/19 00:15:27;;;;;;;4.90;3.53;;;;;;;;;;5113351;28;20016;-63
2023/07/19 00:17:52;;;;;;;5.72;3.58;;;;;;;;;;5105135;28;20302;-62
2023/07/19 00:20:18;;;;;;;5.07;3.55;;;;;;;;;;5108851;28;20024;-63
2023/07/19 00:22:44;;;;;;;12.63;3.30;;;;;;;;;;5105305;28;20043;-63
2023/07/19 00:25:09;;;;;;;8.00;3.65;;;;;;;;;;5106813;28;20028;-63
2023/07/19 00:27:34;;;;;;;9.70;3.60;;;;;;;;;;5103045;28;20035;-63
2023/07/19 00:29:59;;;;;;;4.20;2.45;;;;;;;;;;5098971;28;20081;-63
2023/07/19 00:32:25;;;;;;;5.07;2.80;;;;;;;;;;5113213;28;20089;-63
2023/07/19 00:34:50;;;;;;;6.68;2.97;;;;;;;;;;5110271;28;20028;-63
2023/07/19 00:37:15;;;;;;;5.55;2.88;;;;;;;;;;5112473;28;20377;-63
2023/07/19 00:39:41;;;;;;;4.13;2.58;;;;;;;;;;5112075;28;20023;-63
2023/07/19 00:42:06;;;;;;;8.88;2.92;;;;;;;;;;5113698;28;20032;-63
2023/07/19 00:44:31;;;;;;;5.78;3.47;;;;;;;;;;5100626;28;20024;-63
2023/07/19 00:47:02;;;;;;;5.87;3.43;;;;;;;;;;5094146;28;20378;-63
2023/07/19 00:49:27;;;;;;;3.70;2.63;;;;;;;;;;5093654;28;20679;-63
2023/07/19 00:51:53;;;;;;;5.00;2.80;;;;;;;;;;5102376;28;20019;-63
2023/07/19 00:54:19;;;;;;;7.35;2.70;;;;;;;;;;5098826;28;20062;-63
2023/07/19 00:56:45;;;;;;;9.98;3.20;;;;;;;;;;5095384;28;20043;-64
2023/07/19 00:59:12;;;;;;;4.38;2.72;;;;;;;;;;5096538;28;20153;-64
2023/07/19 01:01:37;;;;;;;8.15;3.47;;;;;;;;;;5107441;28;20043;-64
2023/07/19 01:04:03;;;;;;;4.50;2.85;;;;;;;;;;5097480;28;20028;-64
2023/07/19 01:06:28;;;;;;;6.07;2.60;;;;;;;;;;5097110;28;20051;-64
2023/07/19 01:08:53;;;;;;;3.92;2.55;;;;;;;;;;5095232;28;20062;-63
2023/07/19 01:11:19;;;;;;;8.57;4.07;;;;;;;;;;5096893;28;20065;-64
2023/07/19 01:13:51;;;;;;;7.70;4.40;;;;;;;;;;5098171;28;20040;-63
2023/07/19 01:16:17;;;;;;;5.90;3.50;;;;;;;;;;5095839;28;20020;-63
2023/07/19 01:18:42;;;;;;;6.32;3.38;;;;;;;;;;5098441;28;20385;-63
2023/07/19 01:21:07;;;;;;;6.80;4.00;;;;;;;;;;5093608;28;20070;-63
2023/07/19 01:23:32;;;;;;;7.82;3.97;;;;;;;;;;5102182;28;20081;-63
2023/07/19 01:25:58;;;;;;;5.45;3.92;;;;;;;;;;5098675;28;20455;-63
2023/07/19 01:28:23;;;;;;;6.57;3.83;;;;;;;;;;5098957;28;20024;-63
2023/07/19 01:30:48;;;;;;;6.32;4.43;;;;;;;;;;5096663;28;20783;-63
2023/07/19 01:33:13;;;;;;;9.20;4.87;;;;;;;;;;5103175;28;20035;-64
2023/07/19 01:35:39;;;;;;;7.10;4.80;;;;;;;;;;5104167;28;20751;-64
2023/07/19 01:38:04;;;;;;;7.82;5.25;;;;;;;;;;5104010;28;20075;-63
2023/07/19 01:40:29;;;;;;;12.88;4.00;;;;;;;;;;5106736;28;20051;-64
2023/07/19 01:42:54;;;;;;;6.03;4.40;;;;;;;;;;5109780;28;20467;-64
2023/07/19 01:45:19;;;;;;;7.07;4.70;;;;;;;;;;5100890;28;20665;-63
2023/07/19 01:47:45;;;;;;;8.03;4.97;;;;;;;;;;5107394;28;20023;-64
2023/07/19 01:50:10;;;;;;;7.18;4.47;;;;;;;;;;5106574;28;20269;-64
2023/07/19 01:52:35;;;;;;;8.10;3.97;;;;;;;;;;5098773;28;20027;-63
2023/07/19 01:55:00;;;;;;;5.30;3.93;;;;;;;;;;5097652;28;20056;-63
2023/07/19 01:57:26;;;;;;;7.10;4.40;;;;;;;;;;5092237;28;20320;-64
2023/07/19 01:59:51;;;;;;;9.52;3.85;;;;;;;;;;5101078;28;20390;-64
2023/07/19 02:02:16;;;;;;;9.57;4.15;;;;;;;;;;5099147;28;20032;-63
2023/07/19 02:04:41;;;;;;;6.85;4.40;;;;;;;;;;5098571;28;20024;-64
2023/07/19 02:07:07;;;;;;;7.57;4.33;;;;;;;;;;5111392;28;20393;-64
2023/07/19 02:09:32;;;;;;;7.03;4.03;;;;;;;;;;5092535;28;20274;-63
2023/07/19 02:11:57;;;;;;;8.97;4.17;;;;;;;;;;5107462;28;20076;-64
2023/07/19 02:14:22;;;;;;;12.03;3.90;;;;;;;;;;5112782;28;20368;-64
2023/07/19 02:16:48;;;;;;;6.93;4.20;;;;;;;;;;5098655;28;20745;-63
2023/07/19 02:19:13;;;;;;;7.45;3.67;;;;;;;;;;5109562;28;20020;-64
2023/07/19 02:21:38;;;;;;;6.35;4.38;;;;;;;;;;5101926;28;20028;-63
2023/07/19 02:24:04;;;;;;;4.78;3.40;;;;;;;;;;5107771;28;20478;-64
2023/07/19 02:26:29;;;;;;;6.82;3.75;;;;;;;;;;5111723;28;20023;-64
2023/07/19 02:28:54;;;;;;;5.75;3.53;;;;;;;;;;5110599;28;20027;-63
2023/07/19 02:31:19;;;;;;;5.47;3.45;;;;;;;;;;5110596;28;20085;-63
2023/07/19 02:33:44;;;;;;;8.93;3.60;;;;;;;;;;5100172;28;20059;-64
2023/07/19 02:36:11;;;;;;;7.87;3.70;;;;;;;;;;5092151;28;20785;-64
2023/07/19 02:38:36;;;;;;;8.50;4.32;;;;;;;;;;5101703;28;20276;-63
2023/07/19 02:41:01;;;;;;;9.57;3.75;;;;;;;;;;5111689;28;20024;-63
2023/07/19 02:43:27;;;;;;;6.30;3.33;;;;;;;;;;5107512;28;20103;-64
2023/07/19 02:45:53;;;;;;;7.35;3.80;;;;;;;;;;5102854;28;20027;-63
2023/07/19 02:48:19;;;;;;;8.98;3.70;;;;;;;;;;5111611;28;20351;-64
2023/07/19 02:50:47;;;;;;;7.43;3.60;;;;;;;;;;5103391;28;20283;-64
2023/07/19 02:53:13;;;;;;;6.55;3.03;;;;;;;;;;5093064;28;20031;-63
2023/07/19 02:55:38;;;;;;;3.78;2.63;;;;;;;;;;5111965;28;20085;-63
2023/07/19 02:58:04;;;;;;;6.90;3.55;;;;;;;;;;5109558;28;20023;-64
2023/07/19 03:00:29;;;;;;;5.95;3.38;;;;;;;;;;5111421;28;20023;-64
2023/07/19 03:02:55;;;;;;;6.32;3.42;;;;;;;;;;5109170;28;20478;-64
2023/07/19 03:05:21;;;;;;;6.80;3.28;;;;;;;;;;5111916;28;20114;-64
2023/07/19 03:07:46;;;;;;;5.47;2.92;;;;;;;;;;5111388;28;20152;-63
2023/07/19 03:10:11;;;;;;;4.83;3.20;;;;;;;;;;5110666;28;20028;-64
2023/07/19 03:12:36;;;;;;;4.93;3.60;;;;;;;;;;5111128;28;20344;-63
2023/07/19 03:15:02;;;;;;;8.43;3.80;;;;;;;;;;5111853;28;20253;-63
2023/07/19 03:17:27;;;;;;;8.65;3.22;;;;;;;;;;5103058;28;20288;-64
2023/07/19 03:19:52;;;;;;;6.20;3.67;;;;;;;;;;5111432;28;20040;-63
2023/07/19 03:22:17;;;;;;;7.80;2.80;;;;;;;;;;5110916;28;20285;-63
2023/07/19 03:24:43;;;;;;;8.65;3.42;;;;;;;;;;5111236;28;20431;-63
2023/07/19 03:27:08;;;;;;;5.38;3.15;;;;;;;;;;5109672;28;20023;-63
2023/07/19 03:29:34;;;;;;;5.65;3.22;;;;;;;;;;5101004;28;20035;-63
2023/07/19 03:31:59;;;;;;;7.30;3.33;;;;;;;;;;5107520;28;20528;-64
2023/07/19 03:34:24;;;;;;;6.97;4.07;;;;;;;;;;5111835;28;20037;-64
2023/07/19 03:36:49;;;;;;;4.47;2.67;;;;;;;;;;5109416;28;20331;-63
2023/07/19 03:39:15;;;;;;;6.45;4.05;;;;;;;;;;5110616;28;20069;-63
2023/07/19 03:41:40;;;;;;;4.57;3.08;;;;;;;;;;5106029;28;20462;-63
2023/07/19 03:44:05;;;;;;;5.70;2.80;;;;;;;;;;5099230;28;20023;-63
2023/07/19 03:46:31;;;;;;;4.18;2.90;;;;;;;;;;5104325;28;20035;-64
2023/07/19 03:48:56;;;;;;;4.13;2.92;;;;;;;;;;5101555;28;20091;-63
2023/07/19 03:51:21;;;;;;;4.55;2.63;;;;;;;;;;5107606;28;20027;-63
2023/07/19 03:53:46;;;;;;;4.07;2.85;;;;;;;;;;5101609;28;20051;-63
2023/07/19 03:56:12;;;;;;;6.45;3.53;;;;;;;;;;5107576;28;20463;-63
2023/07/19 03:58:39;;;;;;;6.93;3.58;;;;;;;;;;5100856;28;20024;-64
2023/07/19 04:01:04;;;;;;;5.00;2.72;;;;;;;;;;5110872;28;20027;-63
2023/07/19 04:03:30;;;;;;;4.70;2.83;;;;;;;;;;5111143;28;20026;-62
2023/07/19 04:05:57;;;;;;;7.05;3.42;;;;;;;;;;5111158;28;20370;-62
2023/07/19 04:08:22;;;;;;;6.55;2.78;;;;;;;;;;5097068;28;20024;-62
2023/07/19 04:10:47;;;;;;;6.50;3.17;;;;;;;;;;5112565;28;20492;-62
2023/07/19 04:13:13;;;;;;;7.90;3.43;;;;;;;;;;5104361;28;20035;-63
2023/07/19 04:15:38;;;;;;;12.50;4.00;;;;;;;;;;5114681;28;20276;-63
2023/07/19 04:18:04;;;;;;;5.55;2.88;;;;;;;;;;5113360;28;20485;-63
2023/07/19 04:20:29;;;;;;;6.15;2.80;;;;;;;;;;5114874;28;20078;-63
2023/07/19 04:22:55;;;;;;;5.60;3.22;;;;;;;;;;5113043;28;20061;-63
2023/07/19 04:25:21;;;;;;;7.20;3.42;;;;;;;;;;5114273;28;20020;-63
2023/07/19 04:27:46;;;;;;;5.07;3.10;;;;;;;;;;5113392;28;20019;-63
2023/07/19 04:30:12;;;;;;;6.97;3.45;;;;;;;;;;5113187;28;20024;-63
2023/07/19 04:32:38;;;;;;;8.40;3.45;;;;;;;;;;5107824;28;20028;-63
2023/07/19 04:35:03;;;;;;;5.68;3.25;;;;;;;;;;5106690;28;20420;-63
2023/07/19 04:37:28;;;;;;;5.10;2.92;;;;;;;;;;5112483;28;20027;-63
2023/07/19 04:39:54;;;;;;;5.77;2.80;;;;;;;;;;5102891;28;20107;-63
2023/07/19 04:42:24;;;;;;;6.10;2.97;;;;;;;;;;5100095;28;20310;-63
2023/07/19 04:44:49;;;;;;;4.70;2.97;;;;;;;;;;5110004;28;20031;-63
2023/07/19 04:47:14;;;;;;;8.75;3.60;;;;;;;;;;5113504;28;20026;-63
2023/07/19 04:49:39;;;;;;;7.53;4.32;;;;;;;;;;5113056;28;20019;-63
2023/07/19 04:52:05;;;;;;;5.45;3.30;;;;;;;;;;5112419;28;20098;-63
2023/07/19 04:54:30;;;;;;;5.80;3.45;;;;;;;;;;5111225;28;20008;-63
2023/07/19 04:56:55;;;;;;;8.50;2.87;;;;;;;;;;5112699;28;20035;-63
2023/07/19 04:59:21;;;;;;;6.75;3.42;;;;;;;;;;5113993;28;20353;-64
2023/07/19 05:01:46;;;;;;;5.20;3.00;;;;;;;;;;5112872;28;20036;-63
2023/07/19 05:04:12;;;;;;;6.18;3.97;;;;;;;;;;5112528;28;20024;-63
2023/07/19 05:06:37;;;;;;;6.43;4.30;;;;;;;;;;5113089;28;20102;-63
2023/07/19 05:09:03;;;;;;;7.73;4.90;;;;;;;;;;5111184;28;20106;-63
2023/07/19 05:11:29;;;;;;;7.82;4.72;;;;;;;;;;5113278;28;20277;-63
2023/07/19 05:13:54;;;;;;;9.40;4.97;;;;;;;;;;5112464;28;20478;-63
2023/07/19 05:16:19;;;;;;;12.30;5.05;;;;;;;;;;5113802;28;20094;-63
2023/07/19 05:18:45;;;;;;;7.78;4.47;;;;;;;;;;5113227;28;20504;-63
2023/07/19 05:21:10;;;;;;;8.13;5.07;;;;;;;;;;5113141;28;20036;-63
2023/07/19 05:23:36;;;;;;;9.67;5.17;;;;;;;;;;5101013;28;20054;-63
2023/07/19 05:26:01;;;;;;;9.07;5.20;;;;;;;;;;5095050;28;20262;-63
2023/07/19 05:28:26;;;;;;;8.37;4.57;;;;;;;;;;5098615;28;20020;-63
2023/07/19 05:30:52;;;;;;;7.40;4.87;;;;;;;;;;5113296;28;20270;-63
2023/07/19 05:33:17;;;;;;;10.20;4.97;;;;;;;;;;5110980;28;20269;-64
2023/07/19 05:35:42;;;;;;;6.63;4.82;;;;;;;;;;5107064;28;20368;-63
2023/07/19 05:38:08;;;;;;;9.98;5.13;;;;;;;;;;5108724;28;20027;-63
2023/07/19 05:40:33;;;;;;;6.75;4.88;;;;;;;;;;5099406;28;20020;-63
2023/07/19 05:42:59;;;;;;;8.90;4.90;;;;;;;;;;5113119;28;20106;-63
2023/07/19 05:45:24;;;;;;;8.65;5.28;;;;;;;;;;5113014;28;20470;-63
2023/07/19 05:47:49;;;;;;;8.07;4.80;;;;;;;;;;5111935;28;20054;-63
2023/07/19 05:50:14;;;;;;;8.68;5.15;;;;;;;;;;5100819;28;20326;-63
2023/07/19 05:52:39;;;;;;;9.32;5.63;;;;;;;;;;5112107;28;20023;-63
2023/07/19 05:55:08;;;;;;;9.00;5.45;;;;;;;;;;5113139;28;20094;-63
2023/07/19 05:57:33;;;;;;;11.65;5.47;;;;;;;;;;5098738;28;20020;-63
2023/07/19 06:00:01;;;;;;;8.05;5.53;;;;;;;;;;5113011;28;20012;-64
2023/07/19 06:02:26;;;;;;;8.65;5.40;;;;;;;;;;5110727;28;20449;-63
2023/07/19 06:04:52;;;;;;;12.60;6.10;;;;;;;;;;5093777;28;20055;-63
2023/07/19 06:07:17;;;;;;;13.82;5.85;;;;;;;;;;5092680;28;20756;-63
2023/07/19 06:09:42;;;;;;;8.93;5.57;;;;;;;;;;5097396;28;20528;-63
2023/07/19 06:12:08;;;;;;;14.80;6.68;;;;;;;;;;5101954;28;20015;-63
2023/07/19 06:14:33;;;;;;;8.90;5.82;;;;;;;;;;5105522;28;20021;-63
2023/07/19 06:16:59;;;;;;;18.80;6.07;;;;;;;;;;5110783;28;20022;-63
2023/07/19 06:19:24;;;;;;;13.63;6.38;;;;;;;;;;5101007;28;20103;-63
2023/07/19 06:21:51;;;;;;;9.57;5.47;;;;;;;;;;5101387;28;20028;-63
2023/07/19 06:24:16;;;;;;;9.68;5.78;;;;;;;;;;5103953;28;20747;-63
2023/07/19 06:26:41;;;;;;;14.37;6.63;;;;;;;;;;5103533;28;20064;-63
2023/07/19 06:29:06;;;;;;;9.40;5.20;;;;;;;;;;5096872;28;20760;-63
2023/07/19 06:31:32;;;;;;;8.23;5.40;;;;;;;;;;5101195;28;20770;-63
2023/07/19 06:33:57;;;;;;;13.43;5.93;;;;;;;;;;5095620;28;20024;-63
2023/07/19 06:36:22;;;;;;;11.90;5.37;;;;;;;;;;5100981;28;20023;-63
2023/07/19 06:38:48;;;;;;;13.48;5.72;;;;;;;;;;5096662;28;20309;-63
2023/07/19 06:41:13;;;;;;;8.27;4.97;;;;;;;;;;5098740;28;20023;-63
2023/07/19 06:43:38;;;;;;;9.70;5.25;;;;;;;;;;5097846;28;20324;-62
2023/07/19 06:46:04;;;;;;;10.10;5.65;;;;;;;;;;5094565;28;20068;-63
2023/07/19 06:48:29;;;;;;;10.15;5.63;;;;;;;;;;5093007;28;20024;-63
2023/07/19 06:50:56;;;;;;;17.07;5.77;;;;;;;;;;5095149;28;20487;-63
2023/07/19 06:53:22;;;;;;;8.45;5.63;;;;;;;;;;5092795;28;20266;-63
2023/07/19 06:55:47;;;;;;;17.95;5.28;;;;;;;;;;5106380;28;20026;-63
2023/07/19 06:58:12;;;;;;;8.23;5.33;;;;;;;;;;5097056;28;20032;-64
2023/07/19 07:00:38;;;;;;;11.20;5.78;;;;;;;;;;5107965;28;20322;-63
2023/07/19 07:03:06;;;;;;;9.00;5.15;;;;;;;;;;5093212;28;20036;-63
2023/07/19 07:05:32;;;;;;;13.55;5.63;;;;;;;;;;5103184;28;20085;-63
2023/07/19 07:07:57;;;;;;;9.52;5.97;;;;;;;;;;5092309;28;20036;-63
2023/07/19 07:10:22;;;;;;;11.07;5.40;;;;;;;;;;5090458;28;20012;-63
2023/07/19 07:12:47;;;;;;;27.47;5.87;;;;;;;;;;5091098;28;20032;-63
2023/07/19 07:15:12;;;;;;;11.68;5.80;;;;;;;;;;5107057;28;20308;-63
2023/07/19 07:17:38;;;;;;;12.10;5.38;;;;;;;;;;5104110;28;20031;-63
2023/07/19 07:20:04;;;;;;;17.10;4.80;;;;;;;;;;5100948;28;20110;-63
2023/07/19 07:22:31;;;;;;;9.10;4.70;;;;;;;;;;5104161;28;20565;-63
2023/07/19 07:24:56;;;;;;;14.13;4.90;;;;;;;;;;5105658;28;20064;-65
2023/07/19 07:27:22;;;;;;;9.60;5.33;;;;;;;;;;5109596;28;20026;-64
2023/07/19 07:29:47;;;;;;;6.38;4.70;;;;;;;;;;5095152;28;20274;-64
2023/07/19 07:32:12;;;;;;;11.40;5.13;;;;;;;;;;5104364;28;20027;-64
2023/07/19 07:34:38;;;;;;;7.67;4.70;;;;;;;;;;5100157;28;20020;-64
2023/07/19 07:37:04;;;;;;;8.98;4.55;;;;;;;;;;5100581;28;20262;-64
2023/07/19 07:39:29;;;;;;;9.18;4.57;;;;;;;;;;5107187;28;20016;-63
2023/07/19 07:41:55;;;;;;;12.90;5.25;;;;;;;;;;5093620;28;20043;-63
2023/07/19 07:44:20;;;;;;;8.45;4.07;;;;;;;;;;5096698;28;20043;-64
2023/07/19 07:46:46;;;;;;;10.50;4.40;;;;;;;;;;5096058;28;20024;-64
2023/07/19 07:49:12;;;;;;;8.43;3.90;;;;;;;;;;5097517;28;20024;-63
2023/07/19 07:51:37;;;;;;;11.30;4.10;;;;;;;;;;5102493;28;20016;-63
2023/07/19 07:54:03;;;;;;;14.02;6.03;;;;;;;;;;5098096;28;20024;-61
2023/07/19 07:56:28;;;;;;;12.27;6.10;;;;;;;;;;5096727;28;20020;-61
2023/07/19 07:58:53;;;;;;;17.40;5.45;;;;;;;;;;5095405;28;20281;-62
2023/07/19 08:01:18;;;;;;;29.53;6.67;;;;;;;;;;5103570;28;20186;-62
2023/07/19 08:03:43;;;;;;;8.30;5.83;;;;;;;;;;5100177;28;20270;-62
2023/07/19 08:06:09;;;;;;;10.18;5.63;;;;;;;;;;5097637;28;20277;-62
2023/07/19 08:08:34;;;;;;;9.37;6.20;;;;;;;;;;5095931;28;20061;-62
2023/07/19 08:11:02;;;;;;;18.73;7.50;;;;;;;;;;5101028;28;20621;-62
2023/07/19 08:13:27;;;;;;;10.90;7.28;;;;;;;;;;5100739;28;20015;-62
2023/07/19 08:15:53;;;;;;;13.63;7.63;;;;;;;;;;5104315;28;20026;-61
2023/07/19 08:18:18;;;;;;;12.82;7.50;;;;;;;;;;5107739;28;20274;-62
2023/07/19 08:20:44;;;;;;;12.77;6.93;;;;;;;;;;5106454;28;20055;-61
2023/07/19 08:23:09;;;;;;;10.75;5.93;;;;;;;;;;5107671;28;20377;-62
2023/07/19 08:25:34;;;;;;;14.63;6.50;;;;;;;;;;5105294;28;20016;-61
2023/07/19 08:28:00;;;;;;;14.10;7.60;;;;;;;;;;5107441;28;20274;-62
2023/07/19 08:30:25;;;;;;;13.43;6.32;;;;;;;;;;5105929;28;20062;-61
2023/07/19 08:32:50;;;;;;;19.17;7.68;;;;;;;;;;5109207;28;20024;-61
2023/07/19 08:35:16;;;;;;;17.33;6.80;;;;;;;;;;5109645;28;20019;-61
2023/07/19 08:37:43;;;;;;;11.32;6.10;;;;;;;;;;5112891;28;20024;-61
2023/07/19 08:40:09;;;;;;;15.32;6.30;;;;;;;;;;5106500;28;20047;-61
2023/07/19 08:42:35;;;;;;;10.57;6.20;;;;;;;;;;5097883;28;20067;-62
2023/07/19 08:45:01;;;;;;;9.95;6.65;;;;;;;;;;5092730;28;20490;-61
2023/07/19 08:47:26;;;;;;;7.03;5.18;;;;;;;;;;5095334;28;20445;-61
2023/07/19 08:49:51;;;;;;;10.80;6.22;;;;;;;;;;5111718;28;20027;-61
2023/07/19 08:52:16;;;;;;;8.87;5.00;;;;;;;;;;5103623;28;20412;-62
2023/07/19 08:54:42;;;;;;;11.32;5.68;;;;;;;;;;5107620;28;20361;-61
2023/07/19 08:57:07;;;;;;;8.03;4.43;;;;;;;;;;5105067;28;20055;-62
2023/07/19 08:59:32;;;;;;;7.63;4.55;;;;;;;;;;5112359;28;20281;-62
2023/07/19 09:01:57;;;;;;;7.82;4.05;;;;;;;;;;5108268;28;20078;-61
2023/07/19 09:04:23;;;;;;;6.80;4.07;;;;;;;;;;5110792;28;20031;-61
2023/07/19 09:06:48;;;;;;;8.00;4.25;;;;;;;;;;5097350;28;20262;-61
2023/07/19 09:09:14;;;;;;;10.85;4.25;;;;;;;;;;5097740;28;20034;-62
2023/07/19 09:11:46;;;;;;;7.72;3.22;;;;;;;;;;5096883;28;20103;-61
2023/07/19 09:14:11;;;;;;;6.90;3.15;;;;;;;;;;5100052;28;20020;-62
2023/07/19 09:16:36;;;;;;;6.68;3.17;;;;;;;;;;5104711;28;20034;-62
2023/07/19 09:19:02;;;;;;;9.57;3.05;;;;;;;;;;5101230;28;20027;-61
2023/07/19 09:21:31;;;;;;;8.52;3.40;;;;;;;;;;5106567;28;20031;-62
2023/07/19 09:23:57;;;;;;;8.20;3.20;;;;;;;;;;5098695;28;20062;-62
2023/07/19 09:26:24;;;;;;;4.68;2.70;;;;;;;;;;5105823;28;20481;-63
2023/07/19 09:28:51;;;;;;;8.32;3.33;;;;;;;;;;5104118;28;20032;-63
2023/07/19 09:31:16;;;;;;;11.85;2.97;;;;;;;;;;5105635;28;20027;-62
2023/07/19 09:33:42;;;;;;;9.43;3.13;;;;;;;;;;5104785;28;20015;-63
2023/07/19 09:36:07;;;;;;;6.22;2.80;;;;;;;;;;5106469;28;20016;-63
2023/07/19 09:38:32;;;;;;;6.23;2.57;;;;;;;;;;5112326;28;20019;-62
2023/07/19 09:40:57;;;;;;;6.97;2.43;;;;;;;;;;5104773;28;20281;-63
2023/07/19 09:43:23;;;;;;;7.85;2.30;;;;;;;;;;5098064;28;20806;-63
2023/07/19 09:45:49;;;;;;;8.18;2.00;;;;;;;;;;5111928;28;20031;-63
2023/07/19 09:48:18;;;;;;;5.00;1.80;;;;;;;;;;5104741;28;20489;-63
2023/07/19 09:50:46;;;;;;;5.60;2.03;;;;;;;;;;5101529;28;20478;-63
2023/07/19 09:53:12;;;;;;;5.78;2.28;;;;;;;;;;5104507;28;20026;-63
2023/07/19 09:55:38;;;;;;;5.55;2.30;;;;;;;;;;5104719;28;20099;-63
2023/07/19 09:58:04;;;;;;;6.10;2.60;;;;;;;;;;5102618;28;20020;-63
2023/07/19 10:00:30;;;;;;;5.32;1.92;;;;;;;;;;5112071;28;20488;-63
2023/07/19 10:02:58;;;;;;;4.85;2.00;;;;;;;;;;5108608;28;20107;-63
2023/07/19 10:05:27;;;;;;;6.53;2.45;;;;;;;;;;5111345;28;20019;-63
2023/07/19 10:07:53;;;;;;;4.72;2.30;;;;;;;;;;5104925;28;20020;-63
2023/07/19 10:10:20;;;;;;;7.80;2.35;;;;;;;;;;5106105;28;20044;-64
2023/07/19 10:12:46;;;;;;;4.13;2.08;;;;;;;;;;5107543;28;20034;-63
2023/07/19 10:15:13;;;;;;;4.43;2.20;;;;;;;;;;5111668;28;20096;-64
2023/07/19 10:17:52;;;;;;;5.00;2.25;;;;;;;;;;5109573;28;20027;-63
2023/07/19 10:20:21;;;;;;;8.63;1.67;;;;;;;;;;5111244;28;20023;-63
2023/07/19 10:22:46;;;;;;;6.80;2.00;;;;;;;;;;5110237;28;20453;-63
2023/07/19 10:25:13;;;;;;;11.13;1.75;;;;;;;;;;5108564;28;20062;-63
2023/07/19 10:27:39;;;;;;;2.67;1.17;;;;;;;;;;5105631;28;20023;-64
2023/07/19 10:30:04;;;;;;;5.07;1.83;;;;;;;;;;5107117;28;20416;-64
2023/07/19 10:32:29;;;;;;;11.82;2.40;;;;;;;;;;5105864;28;20273;-64
2023/07/19 10:34:55;;;;;;;4.53;1.97;;;;;;;;;;5109696;28;20098;-65
2023/07/19 10:37:20;;;;;;;2.83;1.35;;;;;;;;;;5106628;28;20273;-63
2023/07/19 10:39:45;;;;;;;4.28;1.80;;;;;;;;;;5103247;28;20068;-64
2023/07/19 10:42:11;;;;;;;5.18;1.70;;;;;;;;;;5104249;28;20035;-64
2023/07/19 10:44:36;;;;;;;3.78;1.77;;;;;;;;;;5109567;28;20024;-64
2023/07/19 10:47:01;;;;;;;5.40;1.83;;;;;;;;;;5098984;28;20378;-63
2023/07/19 10:49:27;;;;;;;4.25;2.08;;;;;;;;;;5078930;28;20690;-62
2023/07/19 10:51:57;;;;;;;5.20;1.98;;;;;;;;;;5103390;28;20097;-64
2023/07/19 10:54:22;;;;;;;4.00;1.95;;;;;;;;;;5104732;28;20023;-63
2023/07/19 10:56:49;;;;;;;4.20;1.90;;;;;;;;;;5111031;28;20024;-63
2023/07/19 10:59:14;;;;;;;9.30;2.45;;;;;;;;;;5110789;28;20098;-64
2023/07/19 11:01:40;;;;;;;4.15;1.77;;;;;;;;;;5111145;28;20458;-64
2023/07/19 11:04:07;;;;;;;5.57;1.95;;;;;;;;;;5104411;28;20051;-63
2023/07/19 11:06:36;;;;;;;7.30;1.98;;;;;;;;;;5098594;28;20478;-64
2023/07/19 11:09:06;;;;;;;4.65;1.98;;;;;;;;;;5106232;28;20064;-63
2023/07/19 11:11:33;;;;;;;3.00;1.80;;;;;;;;;;5111005;28;20070;-64
2023/07/19 11:13:58;;;;;;;5.82;2.38;;;;;;;;;;5111238;28;20026;-63
2023/07/19 11:16:26;;;;;;;7.63;2.00;;;;;;;;;;5111686;28;20023;-64
2023/07/19 11:18:52;;;;;;;7.45;1.98;;;;;;;;;;5107835;28;20809;-64
2023/07/19 11:21:23;;;;;;;5.45;2.25;;;;;;;;;;5103902;28;20036;-63
2023/07/19 11:23:48;;;;;;;7.63;1.95;;;;;;;;;;5113273;28;20127;-63
2023/07/19 11:26:14;;;;;;;4.83;2.00;;;;;;;;;;5113985;28;20526;-64
2023/07/19 11:28:47;;;;;;;5.97;1.80;;;;;;;;;;5113037;28;20261;-64
2023/07/19 11:31:34;;;;;;;3.78;2.22;;;;;;;;;;5113504;28;20034;-64
2023/07/19 11:34:09;;;;;;;10.93;2.30;;;;;;;;;;5101051;28;20397;-63
2023/07/19 11:36:38;;;;;;;9.13;1.90;;;;;;;;;;5112129;28;20327;-64
2023/07/19 11:39:04;;;;;;;5.55;2.38;;;;;;;;;;5113192;28;20497;-64
2023/07/19 11:41:29;;;;;;;4.90;1.80;;;;;;;;;;5112566;28;20029;-64
2023/07/19 11:43:54;;;;;;;3.65;1.77;;;;;;;;;;5113554;28;20691;-64
2023/07/19 11:46:20;;;;;;;5.27;2.10;;;;;;;;;;5113134;28;20063;-64
2023/07/19 11:48:46;;;;;;;5.35;2.08;;;;;;;;;;5105250;28;20274;-63
2023/07/19 11:51:12;;;;;;;11.98;2.35;;;;;;;;;;5109126;28;20024;-65
2023/07/19 11:53:37;;;;;;;7.20;1.92;;;;;;;;;;5105984;28;20034;-63
2023/07/19 11:56:03;;;;;;;6.70;2.30;;;;;;;;;;5094966;28;20445;-64
2023/07/19 11:58:28;;;;;;;3.88;1.75;;;;;;;;;;5094822;28;20028;-64
2023/07/19 12:00:55;;;;;;;4.23;1.93;;;;;;;;;;5107086;28;20036;-64
2023/07/19 12:03:20;;;;;;;6.45;2.10;;;;;;;;;;5093945;28;20270;-64
2023/07/19 12:05:46;;;;;;;6.15;2.05;;;;;;;;;;5094603;28;20103;-64
2023/07/19 12:08:11;;;;;;;4.10;1.67;;;;;;;;;;5102295;28;20393;-64
2023/07/19 12:10:36;;;;;;;4.90;1.63;;;;;;;;;;5098981;28;20032;-64
2023/07/19 12:13:01;;;;;;;6.13;1.80;;;;;;;;;;5094501;28;20323;-64
2023/07/19 12:15:27;;;;;;;4.43;1.53;;;;;;;;;;5107345;28;20313;-63
2023/07/19 12:17:52;;;;;;;7.22;1.83;;;;;;;;;;5102756;28;20265;-65
2023/07/19 12:20:17;;;;;;;5.43;1.73;;;;;;;;;;5093454;28;20028;-65
2023/07/19 12:22:43;;;;;;;5.43;2.10;;;;;;;;;;5093716;28;20303;-64
2023/07/19 12:25:11;;;;;;;3.40;1.40;;;;;;;;;;5090600;28;20024;-65
2023/07/19 12:27:36;;;;;;;4.25;1.80;;;;;;;;;;5104881;28;20035;-64
2023/07/19 12:30:02;;;;;;;5.15;1.83;;;;;;;;;;5109547;28;20027;-64
2023/07/19 12:32:27;;;;;;;3.70;1.50;;;;;;;;;;5104251;28;20474;-63
2023/07/19 12:34:53;;;;;;;4.43;1.40;;;;;;;;;;5104513;28;20066;-64
2023/07/19 12:37:18;;;;;;;4.97;1.60;;;;;;;;;;5110173;28;20616;-63
2023/07/19 12:39:44;;;;;;;6.70;2.20;;;;;;;;;;5096874;28;20053;-63
2023/07/19 12:42:10;;;;;;;4.60;1.95;;;;;;;;;;5099457;28;20027;-66
2023/07/19 12:44:36;;;;;;;4.60;1.70;;;;;;;;;;5108637;28;20031;-66
2023/07/19 12:47:02;;;;;;;3.95;1.60;;;;;;;;;;5106565;28;20011;-65
2023/07/19 12:49:27;;;;;;;5.82;1.63;;;;;;;;;;5109868;28;20023;-66
2023/07/19 12:51:53;;;;;;;3.45;1.48;;;;;;;;;;5110791;28;20031;-66
2023/07/19 12:54:18;;;;;;;7.88;1.50;;;;;;;;;;5104560;28;20550;-65
2023/07/19 12:56:43;;;;;;;4.87;1.57;;;;;;;;;;5108483;28;20019;-65
2023/07/19 12:59:11;;;;;;;8.32;1.67;;;;;;;;;;5109054;28;20015;-65
2023/07/19 13:01:37;;;;;;;3.15;1.63;;;;;;;;;;5103363;28;20483;-65
2023/07/19 13:04:06;;;;;;;4.20;1.30;;;;;;;;;;5110574;28;20019;-66
2023/07/19 13:06:33;;;;;;;3.75;1.48;;;;;;;;;;5102995;28;20028;-65
2023/07/19 13:08:58;;;;;;;3.55;1.40;;;;;;;;;;5096548;28;20049;-64
2023/07/19 13:11:23;;;;;;;9.95;1.52;;;;;;;;;;5100051;28;20031;-64
2023/07/19 13:13:49;;;;;;;4.63;1.23;;;;;;;;;;5109320;28;20095;-64
2023/07/19 13:16:14;;;;;;;5.35;1.75;;;;;;;;;;5110753;28;20473;-66
2023/07/19 13:18:40;;;;;;;5.75;1.35;;;;;;;;;;5105906;28;20019;-66
2023/07/19 13:21:05;;;;;;;4.82;1.83;;;;;;;;;;5100348;28;20111;-63
2023/07/19 13:23:30;;;;;;;4.60;1.60;;;;;;;;;;5099156;28;20474;-61
2023/07/19 13:25:55;;;;;;;4.20;1.33;;;;;;;;;;5111921;28;20111;-62
2023/07/19 13:28:21;;;;;;;3.78;1.15;;;;;;;;;;5108810;28;20068;-63
2023/07/19 13:30:46;;;;;;;2.33;0.88;;;;;;;;;;5112723;28;20028;-65
2023/07/19 13:33:11;;;;;;;8.00;1.23;;;;;;;;;;5108111;28;20028;-65
2023/07/19 13:35:37;;;;;;;4.17;1.50;;;;;;;;;;5100802;28;20031;-63
2023/07/19 13:38:02;;;;;;;3.58;1.38;;;;;;;;;;5112416;28;20827;-63
2023/07/19 13:40:27;;;;;;;3.50;1.13;;;;;;;;;;5110436;28;20032;-64
2023/07/19 13:42:52;;;;;;;4.10;1.33;;;;;;;;;;5112169;28;20035;-63
2023/07/19 13:45:18;;;;;;;3.20;0.98;;;;;;;;;;5111442;28;20273;-64
2023/07/19 13:47:44;;;;;;;3.67;1.27;;;;;;;;;;5111332;28;20416;-63
2023/07/19 13:50:09;;;;;;;3.67;1.40;;;;;;;;;;5108656;28;20081;-65
2023/07/19 13:52:34;;;;;;;6.13;1.75;;;;;;;;;;5111139;28;20028;-64
2023/07/19 13:55:00;;;;;;;3.03;0.95;;;;;;;;;;5111059;28;20462;-65
2023/07/19 13:57:25;;;;;;;6.45;1.60;;;;;;;;;;5110525;28;20434;-65
2023/07/19 13:59:50;;;;;;;5.38;1.10;;;;;;;;;;5103757;28;20455;-64
2023/07/19 14:02:16;;;;;;;6.18;1.45;;;;;;;;;;5106709;28;20470;-63
2023/07/19 14:04:41;;;;;;;3.23;1.37;;;;;;;;;;5106748;28;20038;-63
2023/07/19 14:07:06;;;;;;;3.83;1.27;;;;;;;;;;5099868;28;20278;-63
2023/07/19 14:09:31;;;;;;;2.90;1.20;;;;;;;;;;5102775;28;20031;-64
2023/07/19 14:11:57;;;;;;;3.83;1.15;;;;;;;;;;5097332;28;20266;-65
2023/07/19 14:14:22;;;;;;;5.32;1.40;;;;;;;;;;5093825;28;20135;-63
2023/07/19 14:16:51;;;;;;;2.80;1.33;;;;;;;;;;5108141;28;20511;-64
2023/07/19 14:19:16;;;;;;;3.17;1.45;;;;;;;;;;5095050;28;20036;-65
2023/07/19 14:21:41;;;;;;;3.33;1.38;;;;;;;;;;5094229;28;20023;-64
2023/07/19 14:24:06;;;;;;;2.43;1.30;;;;;;;;;;5104705;28;20411;-63
2023/07/19 14:26:32;;;;;;;2.72;1.35;;;;;;;;;;5108724;28;20265;-64
2023/07/19 14:28:57;;;;;;;3.93;1.30;;;;;;;;;;5094880;28;20134;-65
2023/07/19 14:31:23;;;;;;;8.00;1.52;;;;;;;;;;5108808;28;20261;-64